createdAt,value
2022-12-06T00:01:15.637Z,3.60
2022-12-06T00:03:44.192Z,3.60
2022-12-06T00:06:13.452Z,3.60
2022-12-06T00:08:40.681Z,3.60
2022-12-06T00:11:10.309Z,3.60
2022-12-06T00:13:37.564Z,3.50
2022-12-06T00:16:13.921Z,3.60
2022-12-06T00:18:42.527Z,3.60
2022-12-06T00:21:21.912Z,3.50
2022-12-06T00:23:54.942Z,3.50
2022-12-06T00:26:22.231Z,3.50
2022-12-06T00:28:51.583Z,3.50
2022-12-06T00:31:20.232Z,3.50
2022-12-06T00:33:49.456Z,3.50
2022-12-06T00:36:21.395Z,3.40
2022-12-06T00:38:48.768Z,3.50
2022-12-06T00:41:25.440Z,3.50
2022-12-06T00:43:53.032Z,3.40
2022-12-06T00:46:22.927Z,3.30
2022-12-06T00:48:50.448Z,3.40
2022-12-06T00:51:18.616Z,3.50
2022-12-06T00:53:46.039Z,3.50
2022-12-06T00:56:13.170Z,3.50
2022-12-06T00:58:40.473Z,3.50
2022-12-06T01:01:20.397Z,3.50
2022-12-06T01:03:51.388Z,3.50
2022-12-06T01:06:20.572Z,3.50
2022-12-06T01:08:47.213Z,3.50
2022-12-06T01:11:15.376Z,3.40
2022-12-06T01:13:43.099Z,3.40
2022-12-06T01:16:16.324Z,3.40
2022-12-06T01:18:44.494Z,3.40
2022-12-06T01:21:16.615Z,3.40
2022-12-06T01:23:45.235Z,3.40
2022-12-06T01:26:32.714Z,3.40
2022-12-06T01:29:00.150Z,3.40
2022-12-06T01:31:30.842Z,3.30
2022-12-06T01:34:02.464Z,3.30
2022-12-06T01:36:29.152Z,3.40
2022-12-06T01:38:58.830Z,3.30
2022-12-06T01:41:26.908Z,3.30
2022-12-06T01:43:54.798Z,3.30
2022-12-06T01:46:27.491Z,3.30
2022-12-06T01:48:59.930Z,3.30
2022-12-06T01:51:26.737Z,3.40
2022-12-06T01:53:54.713Z,3.40
2022-12-06T01:56:22.126Z,3.40
2022-12-06T01:58:51.884Z,3.30
2022-12-06T02:01:18.733Z,3.30
2022-12-06T02:03:48.071Z,3.30
2022-12-06T02:06:16.569Z,3.30
2022-12-06T02:08:44.297Z,3.30
2022-12-06T02:11:10.962Z,3.20
2022-12-06T02:13:38.560Z,3.30
2022-12-06T02:16:38.051Z,3.30
2022-12-06T02:19:35.042Z,3.30
2022-12-06T02:22:28.265Z,3.30
2022-12-06T02:25:11.595Z,3.30
2022-12-06T02:27:56.177Z,3.30
2022-12-06T02:30:43.094Z,3.30
2022-12-06T02:33:21.416Z,3.30
2022-12-06T02:36:22.423Z,3.30
2022-12-06T02:38:51.350Z,3.20
2022-12-06T02:41:38.103Z,3.20
2022-12-06T02:44:08.277Z,3.30
2022-12-06T02:46:37.989Z,3.20
2022-12-06T02:49:07.446Z,3.20
2022-12-06T02:51:37.126Z,3.20
2022-12-06T02:54:08.497Z,3.20
2022-12-06T02:56:35.704Z,3.30
2022-12-06T02:59:02.438Z,3.30
2022-12-06T03:01:32.786Z,3.30
2022-12-06T03:04:17.862Z,3.30
2022-12-06T03:07:00.624Z,3.30
2022-12-06T03:09:54.868Z,3.30
2022-12-06T03:12:31.625Z,3.30
2022-12-06T03:14:58.218Z,3.20
2022-12-06T03:17:36.456Z,3.20
2022-12-06T03:20:14.488Z,3.20
2022-12-06T03:22:46.709Z,3.10
2022-12-06T03:25:15.040Z,3.20
2022-12-06T03:27:43.740Z,3.20
2022-12-06T03:30:12.753Z,3.20
2022-12-06T03:32:43.538Z,3.20
2022-12-06T03:35:13.395Z,3.20
2022-12-06T03:37:43.438Z,3.10
2022-12-06T03:40:23.419Z,3.10
2022-12-06T03:42:50.883Z,3.10
2022-12-06T03:45:18.896Z,3.10
2022-12-06T03:48:16.857Z,3.00
2022-12-06T03:50:58.527Z,3.00
2022-12-06T03:53:26.177Z,3.00
2022-12-06T03:55:52.903Z,3.00
2022-12-06T03:58:19.700Z,3.00
2022-12-06T04:00:46.533Z,3.00
2022-12-06T04:03:13.539Z,3.00
2022-12-06T04:05:40.297Z,2.90
2022-12-06T04:08:07.036Z,2.90
2022-12-06T04:10:33.823Z,2.90
2022-12-06T04:13:00.549Z,2.90
2022-12-06T04:15:36.191Z,2.90
2022-12-06T04:18:13.317Z,2.90
2022-12-06T04:21:07.160Z,2.90
2022-12-06T04:23:39.010Z,3.00
2022-12-06T04:26:08.412Z,3.00
2022-12-06T04:29:05.783Z,2.90
2022-12-06T04:31:51.509Z,2.80
2022-12-06T04:34:36.896Z,2.80
2022-12-06T04:37:22.309Z,2.90
2022-12-06T04:39:49.376Z,2.90
2022-12-06T04:42:35.078Z,2.90
2022-12-06T04:45:01.782Z,2.80
2022-12-06T04:47:28.484Z,2.80
2022-12-06T04:49:55.179Z,2.80
2022-12-06T04:52:21.868Z,2.90
2022-12-06T04:54:48.559Z,2.90
2022-12-06T04:57:16.810Z,2.90
2022-12-06T04:59:46.146Z,2.80
2022-12-06T05:02:14.770Z,2.90
2022-12-06T05:04:41.604Z,2.90
2022-12-06T05:07:08.612Z,2.80
2022-12-06T05:09:35.331Z,2.90
2022-12-06T05:12:01.988Z,2.90
2022-12-06T05:14:28.748Z,2.90
2022-12-06T05:16:55.399Z,2.90
2022-12-06T05:19:22.072Z,2.90
2022-12-06T05:21:48.676Z,2.80
2022-12-06T05:24:15.368Z,2.80
2022-12-06T05:26:42.012Z,2.80
2022-12-06T05:29:08.683Z,2.80
2022-12-06T05:31:35.453Z,2.80
2022-12-06T05:34:02.200Z,2.80
2022-12-06T05:36:28.893Z,2.80
2022-12-06T05:38:57.056Z,2.70
2022-12-06T05:41:24.156Z,2.80
2022-12-06T05:43:51.403Z,2.80
2022-12-06T05:46:18.166Z,2.80
2022-12-06T05:48:44.971Z,2.80
2022-12-06T05:51:11.826Z,2.90
2022-12-06T05:53:39.074Z,2.90
2022-12-06T05:56:11.506Z,2.90
2022-12-06T05:58:38.649Z,2.90
2022-12-06T06:01:07.032Z,2.90
2022-12-06T06:03:34.254Z,2.90
2022-12-06T06:06:02.525Z,2.80
2022-12-06T06:08:30.031Z,2.80
2022-12-06T06:10:57.658Z,2.70
2022-12-06T06:13:24.466Z,2.70
2022-12-06T06:15:51.301Z,2.80
2022-12-06T06:18:19.373Z,2.80
2022-12-06T06:20:54.000Z,2.80
2022-12-06T06:23:21.746Z,2.80
2022-12-06T06:25:48.603Z,2.80
2022-12-06T06:28:16.610Z,2.90
2022-12-06T06:30:43.805Z,2.80
2022-12-06T06:33:10.941Z,2.80
2022-12-06T06:35:38.895Z,2.80
2022-12-06T06:38:06.018Z,2.70
2022-12-06T06:40:32.920Z,2.80
2022-12-06T06:43:17.944Z,2.80
2022-12-06T06:45:56.218Z,2.70
2022-12-06T06:48:24.098Z,2.70
2022-12-06T06:50:56.707Z,2.70
2022-12-06T06:53:25.086Z,2.80
2022-12-06T06:55:53.907Z,2.80
2022-12-06T06:58:20.625Z,2.80
2022-12-06T07:00:55.752Z,2.80
2022-12-06T07:03:23.103Z,2.80
2022-12-06T07:05:58.882Z,2.80
2022-12-06T07:08:26.551Z,2.80
2022-12-06T07:10:54.285Z,2.80
2022-12-06T07:13:22.646Z,2.80
2022-12-06T07:15:49.631Z,2.80
2022-12-06T07:18:17.337Z,2.80
2022-12-06T07:20:45.723Z,2.80
2022-12-06T07:23:13.145Z,2.80
2022-12-06T07:25:39.886Z,2.80
2022-12-06T07:28:06.862Z,2.80
2022-12-06T07:30:33.897Z,2.80
2022-12-06T07:33:00.655Z,2.80
2022-12-06T07:35:48.520Z,2.90
2022-12-06T07:38:13.983Z,2.90
2022-12-06T07:41:03.489Z,2.90
2022-12-06T07:43:46.078Z,2.90
2022-12-06T07:46:13.047Z,2.90
2022-12-06T07:48:39.880Z,3.00
2022-12-06T07:51:07.398Z,2.90
2022-12-06T07:53:34.172Z,2.90
2022-12-06T07:56:07.476Z,3.00
2022-12-06T07:58:34.202Z,2.90
2022-12-06T08:01:03.815Z,2.90
2022-12-06T08:03:30.732Z,2.90
2022-12-06T08:05:57.532Z,3.00
2022-12-06T08:08:28.557Z,3.00
2022-12-06T08:10:59.984Z,2.90
2022-12-06T08:13:26.899Z,3.00
2022-12-06T08:15:53.663Z,2.90
2022-12-06T08:18:20.370Z,2.90
2022-12-06T08:20:47.100Z,3.00
2022-12-06T08:23:13.902Z,2.90
2022-12-06T08:25:40.767Z,2.90
2022-12-06T08:28:07.621Z,2.90
2022-12-06T08:30:34.436Z,2.90
2022-12-06T08:33:01.208Z,2.90
2022-12-06T08:35:27.851Z,2.90
2022-12-06T08:37:54.511Z,2.90
2022-12-06T08:40:21.162Z,2.90
2022-12-06T08:42:48.018Z,3.00
2022-12-06T08:45:14.738Z,2.90
2022-12-06T08:47:41.386Z,2.90
2022-12-06T08:50:08.378Z,3.00
2022-12-06T08:52:35.058Z,3.00
2022-12-06T08:55:01.695Z,3.10
2022-12-06T08:57:28.363Z,3.10
2022-12-06T08:59:55.523Z,3.10
2022-12-06T09:02:22.253Z,3.10
2022-12-06T09:04:51.627Z,3.10
2022-12-06T09:07:19.124Z,3.10
2022-12-06T09:09:46.166Z,3.10
2022-12-06T09:12:13.556Z,3.10
2022-12-06T09:14:40.620Z,3.10
2022-12-06T09:17:07.370Z,3.10
2022-12-06T09:19:34.763Z,3.10
2022-12-06T09:22:01.675Z,3.10
2022-12-06T09:24:28.368Z,3.10
2022-12-06T09:26:55.098Z,3.20
2022-12-06T09:29:22.026Z,3.10
2022-12-06T09:31:48.979Z,3.00
2022-12-06T09:34:17.116Z,3.00
2022-12-06T09:36:57.245Z,3.00
2022-12-06T09:39:35.029Z,3.10
2022-12-06T09:43:02.088Z,3.10
2022-12-06T09:45:53.108Z,3.10
2022-12-06T09:48:48.859Z,3.00
2022-12-06T09:51:34.025Z,3.10
2022-12-06T09:54:34.440Z,3.00
2022-12-06T09:57:18.212Z,3.10
2022-12-06T10:00:02.776Z,3.00
2022-12-06T10:02:39.985Z,3.10
2022-12-06T10:05:23.210Z,3.20
2022-12-06T10:08:11.877Z,3.20
2022-12-06T10:10:57.516Z,3.10
2022-12-06T10:13:29.909Z,3.20
2022-12-06T11:09:40.129Z,3.50
2022-12-06T11:12:36.073Z,3.40
2022-12-06T11:15:17.273Z,3.40
2022-12-06T11:17:49.024Z,3.40
2022-12-06T11:20:21.907Z,3.40
2022-12-06T11:23:24.944Z,3.30
2022-12-06T11:26:20.493Z,3.30
2022-12-06T11:29:04.135Z,3.30
2022-12-06T11:31:43.515Z,3.40
2022-12-06T11:34:20.237Z,3.30
2022-12-06T11:36:55.267Z,3.30
2022-12-06T11:39:25.793Z,3.40
2022-12-06T11:41:56.098Z,3.40
2022-12-06T11:44:36.154Z,3.50
2022-12-06T11:47:03.246Z,3.40
2022-12-06T11:49:29.988Z,3.30
2022-12-06T11:51:59.620Z,3.40
2022-12-06T11:54:45.162Z,3.30
2022-12-06T11:57:22.899Z,3.30
2022-12-06T12:00:11.857Z,3.40
2022-12-06T12:02:38.943Z,3.40
2022-12-06T12:05:34.416Z,3.40
2022-12-06T12:08:17.958Z,3.40
2022-12-06T12:10:58.040Z,3.30
2022-12-06T12:13:43.698Z,3.30
2022-12-06T12:16:25.063Z,3.30
2022-12-06T12:19:04.381Z,3.30
2022-12-06T12:21:39.180Z,3.30
2022-12-06T12:24:27.895Z,3.30
2022-12-06T12:26:54.559Z,3.40
2022-12-06T12:29:22.143Z,3.40
2022-12-06T12:31:52.285Z,3.30
2022-12-06T12:34:21.319Z,3.30
2022-12-06T12:36:51.020Z,3.30
2022-12-06T12:39:53.206Z,3.30
2022-12-06T12:42:32.907Z,3.30
2022-12-06T12:45:02.883Z,3.30
2022-12-06T12:47:31.139Z,3.30
2022-12-06T12:50:01.709Z,3.30
2022-12-06T12:52:32.054Z,3.30
2022-12-06T12:55:17.886Z,3.30
2022-12-06T12:57:47.111Z,3.40
2022-12-06T13:00:42.856Z,3.40
2022-12-06T13:03:49.525Z,3.40
2022-12-06T13:06:06.114Z,3.40
2022-12-06T13:08:35.981Z,3.40
2022-12-06T13:11:06.089Z,3.30
2022-12-06T13:13:44.399Z,3.30
2022-12-06T13:16:14.962Z,3.30
2022-12-06T13:18:43.858Z,3.30
2022-12-06T13:21:30.124Z,3.30
2022-12-06T13:24:12.278Z,3.30
2022-12-06T13:26:41.882Z,3.30
2022-12-06T13:29:18.995Z,3.30
2022-12-06T13:31:48.010Z,3.30
2022-12-06T13:34:23.230Z,3.20
2022-12-06T13:36:52.226Z,3.20
2022-12-06T13:39:31.113Z,3.20
2022-12-06T13:42:18.047Z,3.20
2022-12-06T13:44:59.545Z,3.10
2022-12-06T13:47:29.404Z,3.10
2022-12-06T13:50:01.369Z,3.20
2022-12-06T13:52:43.144Z,3.20
2022-12-06T13:55:36.104Z,3.30
2022-12-06T13:58:02.704Z,3.30
2022-12-06T14:00:29.535Z,3.20
2022-12-06T14:02:56.386Z,3.20
2022-12-06T14:08:38.445Z,3.30
2022-12-06T14:11:09.352Z,3.30
2022-12-06T14:13:36.005Z,3.20
2022-12-06T14:16:04.154Z,3.20
2022-12-06T14:18:32.647Z,3.20
2022-12-06T14:21:00.288Z,3.20
2022-12-06T14:23:37.262Z,3.20
2022-12-06T14:26:19.667Z,3.20
2022-12-06T14:28:47.717Z,3.20
2022-12-06T14:31:36.427Z,3.20
2022-12-06T14:34:03.621Z,3.20
2022-12-06T14:36:33.917Z,3.10
2022-12-06T14:39:06.371Z,3.10
2022-12-06T14:41:57.664Z,3.10
2022-12-06T14:44:30.219Z,3.10
2022-12-06T14:46:58.141Z,3.10
2022-12-06T14:49:45.711Z,3.00
2022-12-06T14:52:29.049Z,3.10
2022-12-06T14:55:16.876Z,3.10
2022-12-06T14:57:54.689Z,3.10
2022-12-06T15:00:27.405Z,3.10
2022-12-06T15:03:15.502Z,3.20
2022-12-06T15:05:44.842Z,3.20
2022-12-06T15:08:39.215Z,3.20
2022-12-06T15:11:12.120Z,3.10
2022-12-06T15:13:41.765Z,3.10
2022-12-06T15:16:08.586Z,3.10
2022-12-06T15:18:40.748Z,3.10
2022-12-06T15:21:15.993Z,3.10
2022-12-06T15:23:54.087Z,3.10
2022-12-06T15:26:22.619Z,3.10
2022-12-06T15:28:50.083Z,3.10
2022-12-06T15:31:29.076Z,3.10
2022-12-06T15:33:56.372Z,3.10
2022-12-06T15:36:25.979Z,3.10
2022-12-06T15:38:52.900Z,3.00
2022-12-06T15:41:22.232Z,3.00
2022-12-06T15:43:50.306Z,3.00
2022-12-06T15:46:19.980Z,3.00
2022-12-06T15:48:47.120Z,3.00
2022-12-06T15:51:20.303Z,3.10
2022-12-06T15:53:48.646Z,3.00
2022-12-06T15:56:18.570Z,3.10
2022-12-06T15:58:46.828Z,3.00
2022-12-06T16:01:20.254Z,3.00
2022-12-06T16:03:47.671Z,3.00
2022-12-06T16:06:16.370Z,3.00
2022-12-06T16:08:43.935Z,3.00
2022-12-06T16:11:13.164Z,3.00
2022-12-06T16:13:40.253Z,3.00
2022-12-06T16:16:07.431Z,3.00
2022-12-06T16:18:34.712Z,2.90
2022-12-06T16:21:01.790Z,2.90
2022-12-06T16:24:12.670Z,2.90
2022-12-06T16:26:37.732Z,2.90
2022-12-06T16:29:07.136Z,2.90
2022-12-06T16:31:38.608Z,2.90
2022-12-06T16:34:05.954Z,2.90
2022-12-06T16:36:33.416Z,2.90
2022-12-06T16:39:03.730Z,2.90
2022-12-06T16:41:33.839Z,2.90
2022-12-06T16:44:01.624Z,2.90
2022-12-06T16:46:33.991Z,2.90
2022-12-06T16:49:44.185Z,2.90
2022-12-06T16:52:00.842Z,2.80
2022-12-06T16:54:27.616Z,2.90
2022-12-06T16:56:54.315Z,2.90
2022-12-06T16:59:21.033Z,2.90
2022-12-06T17:01:53.417Z,2.90
2022-12-06T17:04:20.273Z,2.90
2022-12-06T17:06:47.310Z,2.90
2022-12-06T17:09:14.732Z,2.90
2022-12-06T17:12:01.011Z,2.90
2022-12-06T17:14:27.857Z,3.00
2022-12-06T17:16:55.456Z,2.90
2022-12-06T17:19:24.268Z,2.90
2022-12-06T17:21:52.589Z,3.00
2022-12-06T17:24:20.642Z,2.90
2022-12-06T17:26:48.037Z,3.00
2022-12-06T17:29:14.792Z,3.00
2022-12-06T17:31:42.759Z,2.90
2022-12-06T17:34:13.011Z,2.90
2022-12-06T17:36:40.270Z,2.90
2022-12-06T17:39:07.871Z,2.90
2022-12-06T17:41:53.118Z,3.00
2022-12-06T17:44:20.487Z,3.00
2022-12-06T17:46:47.446Z,2.90
2022-12-06T17:49:17.495Z,2.90
2022-12-06T17:51:44.312Z,2.90
2022-12-06T17:54:11.361Z,2.90
2022-12-06T17:56:46.067Z,3.00
2022-12-06T17:59:21.447Z,3.00
2022-12-06T18:04:36.892Z,3.00
2022-12-06T18:07:03.608Z,2.90
2022-12-06T18:09:30.309Z,3.00
2022-12-06T18:11:56.992Z,3.00
2022-12-06T18:14:23.648Z,2.90
2022-12-06T18:16:50.549Z,2.90
2022-12-06T18:19:20.165Z,2.90
2022-12-06T18:21:47.776Z,3.00
2022-12-06T18:24:26.919Z,3.00
2022-12-06T18:26:55.799Z,3.00
2022-12-06T18:29:24.257Z,2.90
2022-12-06T18:31:52.003Z,3.00
2022-12-06T18:34:19.500Z,3.00
2022-12-06T18:36:46.682Z,3.10
2022-12-06T18:39:16.318Z,3.00
2022-12-06T18:41:46.302Z,3.00
2022-12-06T18:44:13.537Z,3.10
2022-12-06T18:46:42.469Z,3.00
2022-12-06T18:49:11.328Z,3.10
2022-12-06T18:51:39.159Z,3.00
2022-12-06T18:54:06.898Z,3.00
2022-12-06T18:56:34.397Z,3.10
2022-12-06T18:59:03.257Z,3.10
2022-12-06T19:01:32.822Z,3.00
2022-12-06T19:04:02.850Z,3.10
2022-12-06T19:06:32.266Z,3.00
2022-12-06T19:09:01.822Z,3.10
2022-12-06T19:11:28.864Z,3.00
2022-12-06T19:14:00.139Z,3.10
2022-12-06T19:16:30.454Z,3.10
2022-12-06T19:18:59.902Z,3.10
2022-12-06T19:21:27.206Z,3.10
2022-12-06T19:23:57.272Z,3.10
2022-12-06T19:26:25.809Z,3.10
2022-12-06T19:28:53.293Z,3.20
2022-12-06T19:31:22.870Z,3.10
2022-12-06T19:33:56.217Z,3.20
2022-12-06T19:36:25.128Z,3.20
2022-12-06T19:39:00.086Z,3.20
2022-12-06T19:41:27.644Z,3.20
2022-12-06T19:44:12.889Z,3.20
2022-12-06T19:46:42.877Z,3.20
2022-12-06T19:49:10.540Z,3.20
2022-12-06T19:51:42.349Z,3.20
2022-12-06T19:54:10.714Z,3.20
2022-12-06T19:56:39.258Z,3.20
2022-12-06T19:59:13.067Z,3.20
2022-12-06T20:01:43.023Z,3.30
2022-12-06T20:04:14.881Z,3.20
2022-12-06T20:06:41.860Z,3.20
2022-12-06T20:09:08.650Z,3.20
2022-12-06T20:11:56.011Z,3.20
2022-12-06T20:14:22.999Z,3.30
2022-12-06T20:16:50.709Z,3.30
2022-12-06T20:19:17.874Z,3.30
2022-12-06T20:21:45.238Z,3.30
2022-12-06T20:24:13.754Z,3.30
2022-12-06T20:26:40.615Z,3.20
2022-12-06T20:29:07.924Z,3.30
2022-12-06T20:31:35.655Z,3.30
2022-12-06T20:34:05.729Z,3.30
2022-12-06T20:36:35.223Z,3.30
2022-12-06T20:39:02.348Z,3.30
2022-12-06T20:41:31.536Z,3.30
2022-12-06T20:43:58.943Z,3.40
2022-12-06T20:46:30.991Z,3.40
2022-12-06T20:49:03.539Z,3.30
2022-12-06T20:51:31.344Z,3.40
2022-12-06T20:54:01.075Z,3.40
2022-12-06T20:56:31.026Z,3.40
2022-12-06T20:58:59.905Z,3.40
2022-12-06T21:01:34.173Z,3.40
2022-12-06T21:04:01.226Z,3.40
2022-12-06T21:06:27.961Z,3.40
2022-12-06T21:08:55.325Z,3.40
2022-12-06T21:11:24.440Z,3.40
2022-12-06T21:13:54.823Z,3.40
2022-12-06T21:16:27.771Z,3.50
2022-12-06T21:19:01.056Z,3.40
2022-12-06T21:21:30.694Z,3.40
2022-12-06T21:24:01.831Z,3.40
2022-12-06T21:26:29.619Z,3.40
2022-12-06T21:28:56.792Z,3.50
2022-12-06T21:31:32.752Z,3.50
2022-12-06T21:34:01.829Z,3.50
2022-12-06T21:36:28.585Z,3.50
2022-12-06T21:38:55.434Z,3.60
2022-12-06T21:41:22.385Z,3.60
2022-12-06T21:43:49.800Z,3.60
2022-12-06T21:46:19.629Z,3.60
2022-12-06T21:48:57.918Z,3.60
2022-12-06T21:51:27.597Z,3.50
2022-12-06T21:53:54.936Z,3.60
2022-12-06T21:56:24.154Z,3.60
2022-12-06T21:58:51.363Z,3.60
2022-12-06T22:01:27.934Z,3.60
2022-12-06T22:03:58.028Z,3.60
2022-12-06T22:06:24.904Z,3.50
2022-12-06T22:08:57.786Z,3.50
2022-12-06T22:11:24.575Z,3.60
2022-12-06T22:13:51.259Z,3.60
2022-12-06T22:16:19.269Z,3.60
2022-12-06T22:18:46.537Z,3.60
2022-12-06T22:21:17.454Z,3.60
2022-12-06T22:23:44.748Z,3.60
2022-12-06T22:26:14.938Z,3.60
2022-12-06T22:28:41.755Z,3.60
2022-12-06T22:31:13.839Z,3.60
2022-12-06T22:33:41.263Z,3.60
2022-12-06T22:36:09.467Z,3.60
2022-12-06T22:38:36.584Z,3.50
2022-12-06T22:41:03.778Z,3.50
2022-12-06T22:43:31.064Z,3.50
2022-12-06T22:46:04.937Z,3.50
2022-12-06T22:48:31.818Z,3.50
2022-12-06T22:51:22.344Z,3.50
2022-12-06T22:53:54.297Z,3.50
2022-12-06T22:56:21.124Z,3.50
2022-12-06T22:58:48.360Z,3.50
2022-12-06T23:01:17.704Z,3.60
2022-12-06T23:03:46.023Z,3.60
2022-12-06T23:06:14.563Z,3.60
2022-12-06T23:08:42.195Z,3.50
2022-12-06T23:11:21.146Z,3.50
2022-12-06T23:13:48.099Z,3.50
2022-12-06T23:16:16.858Z,3.50
2022-12-06T23:18:44.519Z,3.50
2022-12-06T23:21:11.126Z,3.50
2022-12-06T23:23:39.553Z,3.50
2022-12-06T23:26:11.681Z,3.60
2022-12-06T23:28:38.951Z,3.60
2022-12-06T23:31:13.174Z,3.60
2022-12-06T23:33:40.479Z,3.60
2022-12-06T23:36:13.082Z,3.60
2022-12-06T23:38:39.986Z,3.60
2022-12-06T23:41:09.655Z,3.60
2022-12-06T23:43:37.152Z,3.60
2022-12-06T23:46:07.637Z,3.70
2022-12-06T23:48:35.295Z,3.60
2022-12-06T23:51:04.770Z,3.60
2022-12-06T23:53:32.170Z,3.60
2022-12-06T23:56:13.343Z,3.50
2022-12-06T23:58:40.709Z,3.60
